LNI664 WAAA-WAMM
Flight info
| Callsign | LNI664 |
|---|---|
| Flight time | 1h 19m |
| Altitude | 35000 |
| Route | VENRU W32 LUANG |
| Aircraft | B738/M-SDE2E3FGHIRWXY/LB1 |
Departure
| Time | 2026-05-06 02:01 |
|---|---|
| Airport | Sultan Hasanuddin International Airport (WAAA) |
Arrival
| Time | 2026-05-06 03:20 |
|---|---|
| Airport | Sam Ratulangi International Airport (WAMM) |
| Time | Latitude | Longitude | Altitude | Speed | Heading |
|---|---|---|---|---|---|
| 2026-05-06 01:49 | -5.07816 | 119.54915 | 39 ft | 0 kts | 120° |
| 2026-05-06 01:50 | -5.07812 | 119.54907 | 40 ft | 4 kts | 120° |
| 2026-05-06 01:50 | -5.07800 | 119.54885 | 39 ft | 2 kts | 120° |
| 2026-05-06 01:50 | -5.07785 | 119.54867 | 40 ft | 4 kts | 162° |
| 2026-05-06 01:51 | -5.07762 | 119.54870 | 40 ft | 4 kts | 209° |
| 2026-05-06 01:51 | -5.07752 | 119.54875 | 40 ft | 1 kts | 211° |
| 2026-05-06 01:51 | -5.07752 | 119.54876 | 40 ft | 0 kts | 211° |
| 2026-05-06 01:54 | -5.07756 | 119.54873 | 40 ft | 3 kts | 210° |
| 2026-05-06 01:54 | -5.07787 | 119.54855 | 40 ft | 6 kts | 210° |
| 2026-05-06 01:55 | -5.07830 | 119.54830 | 39 ft | 8 kts | 210° |
| 2026-05-06 01:55 | -5.07880 | 119.54802 | 39 ft | 8 kts | 210° |
| 2026-05-06 01:55 | -5.07927 | 119.54774 | 40 ft | 8 kts | 210° |
| 2026-05-06 01:55 | -5.07974 | 119.54747 | 39 ft | 8 kts | 206° |
| 2026-05-06 01:56 | -5.08019 | 119.54764 | 40 ft | 7 kts | 128° |
| 2026-05-06 01:56 | -5.08047 | 119.54811 | 40 ft | 9 kts | 120° |
| 2026-05-06 01:56 | -5.08093 | 119.54846 | 40 ft | 9 kts | 180° |
| 2026-05-06 01:56 | -5.08179 | 119.54807 | 39 ft | 19 kts | 210° |
| 2026-05-06 01:57 | -5.08295 | 119.54739 | 40 ft | 19 kts | 210° |
| 2026-05-06 01:57 | -5.08407 | 119.54674 | 40 ft | 19 kts | 210° |
| 2026-05-06 01:57 | -5.08517 | 119.54611 | 40 ft | 18 kts | 210° |
| 2026-05-06 01:57 | -5.08623 | 119.54549 | 41 ft | 17 kts | 210° |
| 2026-05-06 01:58 | -5.08726 | 119.54490 | 39 ft | 17 kts | 210° |
| 2026-05-06 01:58 | -5.08826 | 119.54433 | 40 ft | 16 kts | 209° |
| 2026-05-06 01:58 | -5.08920 | 119.54380 | 39 ft | 15 kts | 210° |
| 2026-05-06 01:58 | -5.09010 | 119.54328 | 40 ft | 15 kts | 210° |
| 2026-05-06 01:59 | -5.09090 | 119.54282 | 40 ft | 11 kts | 205° |
| 2026-05-06 01:59 | -5.09161 | 119.54295 | 38 ft | 11 kts | 135° |
| 2026-05-06 01:59 | -5.09193 | 119.54343 | 39 ft | 0 kts | 119° |
| 2026-05-06 02:00 | -5.09195 | 119.54347 | 41 ft | 4 kts | 119° |
| 2026-05-06 02:00 | -5.09219 | 119.54394 | 39 ft | 7 kts | 107° |
| 2026-05-06 02:00 | -5.09197 | 119.54421 | 40 ft | 5 kts | 22° |
| 2026-05-06 02:00 | -5.09168 | 119.54440 | 40 ft | 6 kts | 32° |
| 2026-05-06 02:01 | -5.08987 | 119.54544 | 43 ft | 65 kts | 30° |
| 2026-05-06 02:01 | -5.08389 | 119.54890 | 39 ft | 131 kts | 30° |
| 2026-05-06 02:01 | -5.07436 | 119.55439 | 113 ft | 177 kts | 30° |
| 2026-05-06 02:01 | -5.06339 | 119.56073 | 812 ft | 182 kts | 29° |
| 2026-05-06 02:02 | -5.05173 | 119.56468 | 1715 ft | 181 kts | 3° |
| 2026-05-06 02:02 | -5.03916 | 119.56232 | 2424 ft | 189 kts | 338° |
| 2026-05-06 02:02 | -5.02691 | 119.55844 | 3345 ft | 188 kts | 356° |
| 2026-05-06 02:02 | -5.01329 | 119.55800 | 3871 ft | 204 kts | 5° |
| 2026-05-06 02:03 | -4.99842 | 119.55856 | 4289 ft | 223 kts | 7° |
| 2026-05-06 02:03 | -4.98174 | 119.55908 | 4449 ft | 256 kts | 4° |
| 2026-05-06 02:03 | -4.96312 | 119.55912 | 4914 ft | 274 kts | 3° |
| 2026-05-06 02:03 | -4.94374 | 119.55891 | 5684 ft | 280 kts | 3° |
| 2026-05-06 02:04 | -4.92414 | 119.55875 | 6487 ft | 284 kts | 3° |
| 2026-05-06 02:04 | -4.90425 | 119.55884 | 7286 ft | 286 kts | 8° |
| 2026-05-06 02:04 | -4.88553 | 119.56461 | 8059 ft | 281 kts | 33° |
| 2026-05-06 02:04 | -4.86973 | 119.57608 | 8838 ft | 281 kts | 42° |
| 2026-05-06 02:05 | -4.85474 | 119.58900 | 9510 ft | 287 kts | 44° |
| 2026-05-06 02:05 | -4.83982 | 119.60249 | 10201 ft | 290 kts | 45° |
| 2026-05-06 02:05 | -4.82439 | 119.61662 | 10454 ft | 312 kts | 44° |
| 2026-05-06 02:05 | -4.80758 | 119.63158 | 10620 ft | 334 kts | 43° |
| 2026-05-06 02:06 | -4.78962 | 119.64734 | 10852 ft | 351 kts | 43° |
| 2026-05-06 02:06 | -4.77100 | 119.66363 | 11372 ft | 358 kts | 42° |
| 2026-05-06 02:06 | -4.75218 | 119.68010 | 11994 ft | 360 kts | 42° |
| 2026-05-06 02:06 | -4.73315 | 119.69669 | 12589 ft | 365 kts | 41° |
| 2026-05-06 02:07 | -4.71387 | 119.71349 | 13218 ft | 368 kts | 41° |
| 2026-05-06 02:07 | -4.69450 | 119.73037 | 13863 ft | 371 kts | 41° |
| 2026-05-06 02:07 | -4.67500 | 119.74737 | 14476 ft | 373 kts | 41° |
| 2026-05-06 02:07 | -4.65534 | 119.76455 | 15001 ft | 377 kts | 42° |
| 2026-05-06 02:08 | -4.63546 | 119.78192 | 15535 ft | 381 kts | 42° |
| 2026-05-06 02:08 | -4.61542 | 119.79941 | 16148 ft | 382 kts | 41° |
| 2026-05-06 02:08 | -4.59530 | 119.81695 | 16730 ft | 385 kts | 41° |
| 2026-05-06 02:08 | -4.57500 | 119.83464 | 17221 ft | 389 kts | 41° |
| 2026-05-06 02:09 | -4.55451 | 119.85251 | 17724 ft | 392 kts | 41° |
| 2026-05-06 02:09 | -4.53388 | 119.87049 | 18232 ft | 394 kts | 42° |
| 2026-05-06 02:09 | -4.51314 | 119.88858 | 18734 ft | 397 kts | 42° |
| 2026-05-06 02:09 | -4.49223 | 119.90682 | 19177 ft | 400 kts | 42° |
| 2026-05-06 02:10 | -4.47117 | 119.92519 | 19618 ft | 403 kts | 42° |
| 2026-05-06 02:10 | -4.44993 | 119.94369 | 20058 ft | 405 kts | 42° |
| 2026-05-06 02:10 | -4.42859 | 119.96227 | 20460 ft | 408 kts | 42° |
| 2026-05-06 02:10 | -4.40707 | 119.98103 | 20846 ft | 411 kts | 42° |
| 2026-05-06 02:11 | -4.38539 | 119.99992 | 21234 ft | 414 kts | 42° |
| 2026-05-06 02:11 | -4.36364 | 120.01889 | 21616 ft | 416 kts | 42° |
| 2026-05-06 02:11 | -4.34201 | 120.03773 | 21976 ft | 419 kts | 42° |
| 2026-05-06 02:11 | -4.31998 | 120.05695 | 22326 ft | 421 kts | 42° |
| 2026-05-06 02:12 | -4.29779 | 120.07628 | 22670 ft | 424 kts | 42° |
| 2026-05-06 02:12 | -4.27547 | 120.09572 | 23006 ft | 426 kts | 42° |
| 2026-05-06 02:12 | -4.25307 | 120.11527 | 23344 ft | 428 kts | 42° |
| 2026-05-06 02:12 | -4.23055 | 120.13489 | 23649 ft | 430 kts | 42° |
| 2026-05-06 02:13 | -4.20790 | 120.15460 | 23931 ft | 433 kts | 42° |
| 2026-05-06 02:13 | -4.18512 | 120.17444 | 24230 ft | 435 kts | 42° |
| 2026-05-06 02:13 | -4.16223 | 120.19437 | 24510 ft | 437 kts | 42° |
| 2026-05-06 02:13 | -4.13922 | 120.21440 | 24779 ft | 439 kts | 42° |
| 2026-05-06 02:14 | -4.11610 | 120.23451 | 25049 ft | 441 kts | 42° |
| 2026-05-06 02:14 | -4.09293 | 120.25469 | 25309 ft | 443 kts | 42° |
| 2026-05-06 02:14 | -4.06963 | 120.27496 | 25569 ft | 445 kts | 42° |
| 2026-05-06 02:14 | -4.04624 | 120.29532 | 25830 ft | 446 kts | 42° |
| 2026-05-06 02:15 | -4.02279 | 120.31572 | 26050 ft | 448 kts | 42° |
| 2026-05-06 02:15 | -3.99923 | 120.33623 | 26261 ft | 450 kts | 42° |
| 2026-05-06 02:15 | -3.97553 | 120.35686 | 26499 ft | 452 kts | 42° |
| 2026-05-06 02:15 | -3.95177 | 120.37752 | 26754 ft | 453 kts | 42° |
| 2026-05-06 02:16 | -3.93568 | 120.39151 | 26927 ft | 454 kts | 42° |
| 2026-05-06 02:16 | -3.91214 | 120.41200 | 27138 ft | 455 kts | 42° |
| 2026-05-06 02:16 | -3.88818 | 120.43287 | 27334 ft | 458 kts | 42° |
| 2026-05-06 02:16 | -3.86641 | 120.45184 | 27529 ft | 459 kts | 43° |
| 2026-05-06 02:17 | -3.84226 | 120.47285 | 27754 ft | 460 kts | 42° |
| 2026-05-06 02:17 | -3.81808 | 120.49387 | 27970 ft | 462 kts | 42° |
| 2026-05-06 02:17 | -3.79372 | 120.51502 | 28175 ft | 464 kts | 42° |
| 2026-05-06 02:17 | -3.76936 | 120.53620 | 28385 ft | 465 kts | 42° |
| 2026-05-06 02:18 | -3.74517 | 120.55724 | 28563 ft | 466 kts | 43° |
| 2026-05-06 02:18 | -3.72394 | 120.57571 | 28723 ft | 468 kts | 42° |
| 2026-05-06 02:18 | -3.70228 | 120.59457 | 28889 ft | 469 kts | 43° |
| 2026-05-06 02:18 | -3.67818 | 120.61554 | 29089 ft | 470 kts | 42° |
| 2026-05-06 02:19 | -3.65352 | 120.63698 | 29280 ft | 472 kts | 42° |
| 2026-05-06 02:19 | -3.63021 | 120.65724 | 29437 ft | 473 kts | 42° |
| 2026-05-06 02:19 | -3.60531 | 120.67888 | 29608 ft | 474 kts | 42° |
| 2026-05-06 02:19 | -3.58179 | 120.69931 | 29768 ft | 476 kts | 42° |
| 2026-05-06 02:20 | -3.53215 | 120.74244 | 30231 ft | 475 kts | 42° |
| 2026-05-06 02:20 | -3.50722 | 120.76409 | 30523 ft | 473 kts | 42° |
| 2026-05-06 02:20 | -3.48235 | 120.78571 | 30775 ft | 473 kts | 42° |
| 2026-05-06 02:21 | -3.45753 | 120.80727 | 30991 ft | 473 kts | 42° |
| 2026-05-06 02:21 | -3.43264 | 120.82890 | 31213 ft | 473 kts | 42° |
| 2026-05-06 02:21 | -3.40781 | 120.85046 | 31467 ft | 472 kts | 42° |
| 2026-05-06 02:21 | -3.38299 | 120.87202 | 31704 ft | 472 kts | 42° |
| 2026-05-06 02:22 | -3.35822 | 120.89353 | 31920 ft | 472 kts | 42° |
| 2026-05-06 02:22 | -3.33341 | 120.91509 | 32178 ft | 472 kts | 42° |
| 2026-05-06 02:22 | -3.30867 | 120.93659 | 32454 ft | 470 kts | 42° |
| 2026-05-06 02:22 | -3.28398 | 120.95804 | 32703 ft | 469 kts | 42° |
| 2026-05-06 02:23 | -3.25930 | 120.97947 | 32898 ft | 470 kts | 42° |
| 2026-05-06 02:23 | -3.23462 | 121.00091 | 33106 ft | 470 kts | 42° |
| 2026-05-06 02:23 | -3.20991 | 121.02236 | 33343 ft | 470 kts | 42° |
| 2026-05-06 02:23 | -3.18527 | 121.04376 | 33606 ft | 469 kts | 42° |
| 2026-05-06 02:24 | -3.16098 | 121.06485 | 33850 ft | 468 kts | 42° |
| 2026-05-06 02:24 | -3.13606 | 121.08650 | 34071 ft | 468 kts | 42° |
| 2026-05-06 02:24 | -3.11179 | 121.10757 | 34296 ft | 468 kts | 42° |
| 2026-05-06 02:24 | -3.08681 | 121.12909 | 34563 ft | 467 kts | 41° |
| 2026-05-06 02:25 | -3.06223 | 121.14956 | 34813 ft | 466 kts | 40° |
| 2026-05-06 02:25 | -3.01172 | 121.19065 | 34901 ft | 469 kts | 40° |
| 2026-05-06 02:26 | -2.96118 | 121.23177 | 34907 ft | 467 kts | 40° |
| 2026-05-06 02:26 | -2.91111 | 121.27275 | 34909 ft | 464 kts | 40° |
| 2026-05-06 02:27 | -2.86130 | 121.31365 | 34904 ft | 462 kts | 40° |
| 2026-05-06 02:27 | -2.81169 | 121.35439 | 34908 ft | 461 kts | 40° |
| 2026-05-06 02:28 | -2.76212 | 121.39506 | 34910 ft | 461 kts | 40° |
| 2026-05-06 02:28 | -2.71249 | 121.43574 | 34920 ft | 462 kts | 40° |
| 2026-05-06 02:29 | -2.66267 | 121.47660 | 34919 ft | 464 kts | 40° |
| 2026-05-06 02:29 | -2.61265 | 121.51761 | 34919 ft | 466 kts | 40° |
| 2026-05-06 02:30 | -2.56240 | 121.55882 | 34924 ft | 468 kts | 40° |
| 2026-05-06 02:30 | -2.51190 | 121.60023 | 34919 ft | 471 kts | 40° |
| 2026-05-06 02:31 | -2.46157 | 121.64152 | 34926 ft | 472 kts | 41° |
| 2026-05-06 02:31 | -2.41082 | 121.68313 | 34917 ft | 473 kts | 41° |
| 2026-05-06 02:32 | -2.36064 | 121.72576 | 34915 ft | 473 kts | 42° |
| 2026-05-06 02:32 | -2.31113 | 121.76902 | 34911 ft | 473 kts | 43° |
| 2026-05-06 02:33 | -2.26165 | 121.81217 | 34918 ft | 471 kts | 43° |
| 2026-05-06 02:33 | -2.24510 | 121.82654 | 34916 ft | 471 kts | 42° |
| 2026-05-06 02:34 | -2.16872 | 121.89263 | 34914 ft | 469 kts | 42° |
| 2026-05-06 02:34 | -2.13263 | 121.92381 | 34918 ft | 468 kts | 42° |
| 2026-05-06 02:35 | -2.10396 | 121.94878 | 34916 ft | 468 kts | 42° |
| 2026-05-06 02:35 | -2.06961 | 121.97383 | 34853 ft | 468 kts | 39° |
| 2026-05-06 02:36 | -2.03804 | 122.00184 | 34921 ft | 464 kts | 45° |
| 2026-05-06 02:36 | -2.00708 | 122.03098 | 34918 ft | 464 kts | 44° |
| 2026-05-06 02:37 | -1.96921 | 122.06502 | 35002 ft | 456 kts | 41° |
| 2026-05-06 02:37 | -1.92848 | 122.10048 | 35015 ft | 446 kts | 42° |
| 2026-05-06 02:38 | -1.88310 | 122.13956 | 34871 ft | 437 kts | 42° |
| 2026-05-06 02:38 | -1.83981 | 122.17689 | 34916 ft | 445 kts | 42° |
| 2026-05-06 02:39 | -1.79217 | 122.21806 | 34921 ft | 454 kts | 42° |
| 2026-05-06 02:39 | -1.74439 | 122.25939 | 34918 ft | 461 kts | 42° |
| 2026-05-06 02:40 | -1.69546 | 122.30166 | 34917 ft | 468 kts | 42° |
| 2026-05-06 02:40 | -1.64587 | 122.34443 | 34908 ft | 472 kts | 42° |
| 2026-05-06 02:41 | -1.59605 | 122.38745 | 34929 ft | 474 kts | 42° |
| 2026-05-06 02:41 | -1.54611 | 122.43058 | 34909 ft | 475 kts | 42° |
| 2026-05-06 02:42 | -1.49623 | 122.47369 | 34911 ft | 473 kts | 42° |
| 2026-05-06 02:42 | -1.44654 | 122.51659 | 34914 ft | 470 kts | 42° |
| 2026-05-06 02:43 | -1.39709 | 122.55926 | 34923 ft | 469 kts | 42° |
| 2026-05-06 02:43 | -1.34787 | 122.60177 | 34905 ft | 467 kts | 42° |
| 2026-05-06 02:44 | -1.29883 | 122.64414 | 34913 ft | 465 kts | 42° |
| 2026-05-06 02:44 | -1.25003 | 122.68627 | 34916 ft | 462 kts | 42° |
| 2026-05-06 02:45 | -1.20152 | 122.72819 | 34918 ft | 460 kts | 42° |
| 2026-05-06 02:45 | -1.15304 | 122.77006 | 34909 ft | 461 kts | 42° |
| 2026-05-06 02:46 | -1.10452 | 122.81191 | 34920 ft | 460 kts | 42° |
| 2026-05-06 02:46 | -1.05604 | 122.85375 | 34916 ft | 461 kts | 42° |
| 2026-05-06 02:47 | -1.00752 | 122.89567 | 34912 ft | 461 kts | 42° |
| 2026-05-06 02:47 | -0.95891 | 122.93762 | 34921 ft | 462 kts | 42° |
| 2026-05-06 02:48 | -0.91020 | 122.97967 | 34917 ft | 463 kts | 42° |
| 2026-05-06 02:48 | -0.86153 | 123.02190 | 34918 ft | 464 kts | 43° |
| 2026-05-06 02:49 | -0.81315 | 123.06476 | 34916 ft | 466 kts | 43° |
| 2026-05-06 02:49 | -0.76463 | 123.10785 | 34917 ft | 467 kts | 43° |
| 2026-05-06 02:50 | -0.71611 | 123.15086 | 34925 ft | 466 kts | 43° |
| 2026-05-06 02:50 | -0.66795 | 123.19353 | 34921 ft | 465 kts | 43° |
| 2026-05-06 02:51 | -0.61950 | 123.23641 | 34918 ft | 465 kts | 43° |
| 2026-05-06 02:51 | -0.57118 | 123.27917 | 34924 ft | 464 kts | 43° |
| 2026-05-06 02:52 | -0.52296 | 123.32182 | 34920 ft | 462 kts | 43° |
| 2026-05-06 02:52 | -0.47490 | 123.36433 | 34926 ft | 461 kts | 43° |
| 2026-05-06 02:53 | -0.42690 | 123.40683 | 34930 ft | 460 kts | 43° |
| 2026-05-06 02:53 | -0.37884 | 123.44939 | 34917 ft | 463 kts | 43° |
| 2026-05-06 02:54 | -0.33068 | 123.49201 | 34924 ft | 462 kts | 43° |
| 2026-05-06 02:54 | -0.28257 | 123.53455 | 34924 ft | 462 kts | 43° |
| 2026-05-06 02:55 | -0.23447 | 123.57712 | 34931 ft | 461 kts | 43° |
| 2026-05-06 02:55 | -0.18647 | 123.61962 | 34921 ft | 460 kts | 43° |
| 2026-05-06 02:56 | -0.13862 | 123.66201 | 34930 ft | 459 kts | 43° |
| 2026-05-06 02:56 | -0.09086 | 123.70428 | 34924 ft | 458 kts | 43° |
| 2026-05-06 02:56 | -0.06720 | 123.72521 | 34528 ft | 464 kts | 43° |
| 2026-05-06 02:57 | -0.04270 | 123.74688 | 33941 ft | 464 kts | 43° |
| 2026-05-06 02:57 | -0.01889 | 123.76794 | 33312 ft | 462 kts | 43° |
| 2026-05-06 02:57 | 0.00505 | 123.78914 | 32875 ft | 457 kts | 43° |
| 2026-05-06 02:57 | 0.02877 | 123.81013 | 32395 ft | 454 kts | 43° |
| 2026-05-06 02:58 | 0.05258 | 123.83120 | 31923 ft | 450 kts | 43° |
| 2026-05-06 02:58 | 0.07607 | 123.85162 | 31455 ft | 446 kts | 39° |
| 2026-05-06 02:58 | 0.10149 | 123.86935 | 30982 ft | 444 kts | 33° |
| 2026-05-06 02:58 | 0.12774 | 123.88538 | 30509 ft | 441 kts | 31° |
| 2026-05-06 02:59 | 0.15314 | 123.90021 | 30067 ft | 438 kts | 31° |
| 2026-05-06 02:59 | 0.17939 | 123.91550 | 29585 ft | 435 kts | 31° |
| 2026-05-06 02:59 | 0.20529 | 123.93076 | 29267 ft | 428 kts | 32° |
| 2026-05-06 02:59 | 0.23041 | 123.94578 | 28798 ft | 425 kts | 32° |
| 2026-05-06 03:00 | 0.25563 | 123.96104 | 28359 ft | 422 kts | 32° |
| 2026-05-06 03:00 | 0.28054 | 123.97624 | 27908 ft | 418 kts | 32° |
| 2026-05-06 03:00 | 0.30525 | 123.99139 | 27451 ft | 415 kts | 32° |
| 2026-05-06 03:00 | 0.32978 | 124.00646 | 27004 ft | 412 kts | 32° |
| 2026-05-06 03:01 | 0.35412 | 124.02141 | 26566 ft | 410 kts | 32° |
| 2026-05-06 03:01 | 0.37836 | 124.03629 | 26118 ft | 408 kts | 32° |
| 2026-05-06 03:01 | 0.40252 | 124.05111 | 25663 ft | 406 kts | 32° |
| 2026-05-06 03:01 | 0.42652 | 124.06582 | 25208 ft | 404 kts | 32° |
| 2026-05-06 03:02 | 0.45036 | 124.08045 | 24766 ft | 401 kts | 32° |
| 2026-05-06 03:02 | 0.47410 | 124.09499 | 24316 ft | 399 kts | 32° |
| 2026-05-06 03:02 | 0.49711 | 124.10911 | 23887 ft | 396 kts | 33° |
| 2026-05-06 03:02 | 0.52051 | 124.12347 | 23454 ft | 393 kts | 32° |
| 2026-05-06 03:03 | 0.53590 | 124.13290 | 23160 ft | 392 kts | 32° |
| 2026-05-06 03:03 | 0.55908 | 124.14713 | 22724 ft | 389 kts | 32° |
| 2026-05-06 03:03 | 0.58206 | 124.16123 | 22289 ft | 387 kts | 32° |
| 2026-05-06 03:03 | 0.60495 | 124.17527 | 21853 ft | 384 kts | 32° |
| 2026-05-06 03:04 | 0.62763 | 124.18918 | 21410 ft | 381 kts | 32° |
| 2026-05-06 03:04 | 0.65013 | 124.20298 | 20999 ft | 378 kts | 32° |
| 2026-05-06 03:04 | 0.67253 | 124.21672 | 20569 ft | 377 kts | 32° |
| 2026-05-06 03:04 | 0.69479 | 124.23038 | 20136 ft | 374 kts | 32° |
| 2026-05-06 03:05 | 0.72407 | 124.24834 | 19579 ft | 371 kts | 32° |
| 2026-05-06 03:05 | 0.73888 | 124.25744 | 19293 ft | 370 kts | 32° |
| 2026-05-06 03:05 | 0.76075 | 124.27087 | 18872 ft | 368 kts | 32° |
| 2026-05-06 03:05 | 0.78248 | 124.28418 | 18464 ft | 365 kts | 32° |
| 2026-05-06 03:06 | 0.80399 | 124.29738 | 18045 ft | 362 kts | 32° |
| 2026-05-06 03:06 | 0.82539 | 124.31051 | 17629 ft | 360 kts | 32° |
| 2026-05-06 03:06 | 0.84663 | 124.32354 | 17226 ft | 357 kts | 32° |
| 2026-05-06 03:06 | 0.86776 | 124.33650 | 16803 ft | 356 kts | 32° |
| 2026-05-06 03:07 | 0.88706 | 124.34835 | 16433 ft | 353 kts | 32° |
| 2026-05-06 03:07 | 0.90794 | 124.36116 | 16042 ft | 351 kts | 32° |
| 2026-05-06 03:07 | 0.92866 | 124.37385 | 15645 ft | 349 kts | 32° |
| 2026-05-06 03:07 | 0.94931 | 124.38651 | 15225 ft | 347 kts | 32° |
| 2026-05-06 03:08 | 0.96983 | 124.39910 | 14835 ft | 345 kts | 32° |
| 2026-05-06 03:08 | 0.99020 | 124.41159 | 14443 ft | 343 kts | 31° |
| 2026-05-06 03:08 | 1.01045 | 124.42400 | 14059 ft | 340 kts | 31° |
| 2026-05-06 03:08 | 1.03034 | 124.43618 | 13656 ft | 339 kts | 31° |
| 2026-05-06 03:09 | 1.05039 | 124.44848 | 13277 ft | 337 kts | 31° |
| 2026-05-06 03:09 | 1.07034 | 124.46073 | 12891 ft | 335 kts | 31° |
| 2026-05-06 03:09 | 1.09017 | 124.47291 | 12498 ft | 334 kts | 31° |
| 2026-05-06 03:09 | 1.10987 | 124.48498 | 12114 ft | 332 kts | 31° |
| 2026-05-06 03:10 | 1.12951 | 124.49702 | 11721 ft | 330 kts | 31° |
| 2026-05-06 03:10 | 1.14903 | 124.50899 | 11350 ft | 328 kts | 31° |
| 2026-05-06 03:10 | 1.16845 | 124.52091 | 10970 ft | 327 kts | 31° |
| 2026-05-06 03:10 | 1.18779 | 124.53276 | 10587 ft | 325 kts | 31° |
| 2026-05-06 03:11 | 1.20674 | 124.54443 | 10455 ft | 315 kts | 32° |
| 2026-05-06 03:11 | 1.22247 | 124.55922 | 10293 ft | 310 kts | 56° |
| 2026-05-06 03:11 | 1.23106 | 124.57852 | 10200 ft | 303 kts | 76° |
| 2026-05-06 03:11 | 1.23548 | 124.59887 | 10089 ft | 298 kts | 78° |
| 2026-05-06 03:12 | 1.23953 | 124.61921 | 9912 ft | 299 kts | 78° |
| 2026-05-06 03:12 | 1.24354 | 124.63943 | 9600 ft | 300 kts | 78° |
| 2026-05-06 03:12 | 1.24765 | 124.65979 | 9300 ft | 298 kts | 78° |
| 2026-05-06 03:12 | 1.25183 | 124.68008 | 8993 ft | 298 kts | 78° |
| 2026-05-06 03:13 | 1.25598 | 124.70014 | 8703 ft | 296 kts | 78° |
| 2026-05-06 03:13 | 1.26018 | 124.72019 | 8406 ft | 294 kts | 77° |
| 2026-05-06 03:13 | 1.26435 | 124.74010 | 8111 ft | 292 kts | 78° |
| 2026-05-06 03:13 | 1.26753 | 124.76009 | 7770 ft | 293 kts | 86° |
| 2026-05-06 03:14 | 1.26790 | 124.78038 | 7485 ft | 292 kts | 90° |
| 2026-05-06 03:14 | 1.26790 | 124.80063 | 7141 ft | 289 kts | 89° |
| 2026-05-06 03:14 | 1.26813 | 124.82049 | 6838 ft | 282 kts | 89° |
| 2026-05-06 03:14 | 1.26850 | 124.83984 | 6519 ft | 276 kts | 89° |
| 2026-05-06 03:15 | 1.26875 | 124.85874 | 6215 ft | 269 kts | 90° |
| 2026-05-06 03:15 | 1.26853 | 124.87702 | 5980 ft | 265 kts | 91° |
| 2026-05-06 03:15 | 1.26973 | 124.89553 | 5655 ft | 266 kts | 70° |
| 2026-05-06 03:15 | 1.27985 | 124.91037 | 5356 ft | 264 kts | 36° |
| 2026-05-06 03:16 | 1.29657 | 124.91708 | 5104 ft | 260 kts | 7° |
| 2026-05-06 03:16 | 1.31457 | 124.91823 | 4830 ft | 258 kts | 1° |
| 2026-05-06 03:16 | 1.33249 | 124.91880 | 4637 ft | 249 kts | 1° |
| 2026-05-06 03:16 | 1.34929 | 124.91935 | 4339 ft | 243 kts | 1° |
| 2026-05-06 03:17 | 1.36601 | 124.91993 | 4010 ft | 240 kts | 1° |
| 2026-05-06 03:17 | 1.38186 | 124.92048 | 3677 ft | 238 kts | 1° |
| 2026-05-06 03:17 | 1.39826 | 124.92105 | 3354 ft | 235 kts | 1° |
| 2026-05-06 03:17 | 1.41403 | 124.92160 | 3015 ft | 229 kts | 1° |
| 2026-05-06 03:18 | 1.42700 | 124.92206 | 2734 ft | 219 kts | 1° |
| 2026-05-06 03:18 | 1.44176 | 124.92257 | 2411 ft | 208 kts | 1° |
| 2026-05-06 03:18 | 1.45578 | 124.92304 | 2108 ft | 202 kts | 1° |
| 2026-05-06 03:18 | 1.46941 | 124.92353 | 1851 ft | 192 kts | 1° |
| 2026-05-06 03:19 | 1.48246 | 124.92401 | 1555 ft | 184 kts | 1° |
| 2026-05-06 03:19 | 1.49497 | 124.92442 | 1289 ft | 174 kts | 1° |
| 2026-05-06 03:19 | 1.50658 | 124.92483 | 1037 ft | 163 kts | 1° |
| 2026-05-06 03:19 | 1.51756 | 124.92522 | 820 ft | 156 kts | 1° |
| 2026-05-06 03:20 | 1.53945 | 124.92605 | 360 ft | 155 kts | 0° |
| 2026-05-06 03:20 | 1.54932 | 124.92634 | 337 ft | 117 kts | 2° |
| 2026-05-06 03:20 | 1.55508 | 124.92652 | 333 ft | 39 kts | 1° |
| 2026-05-06 03:21 | 1.55627 | 124.92654 | 336 ft | 10 kts | 351° |
| 2026-05-06 03:21 | 1.55666 | 124.92603 | 336 ft | 10 kts | 275° |
| 2026-05-06 03:21 | 1.55668 | 124.92535 | 336 ft | 10 kts | 270° |
| 2026-05-06 03:21 | 1.55627 | 124.92493 | 336 ft | 11 kts | 188° |
| 2026-05-06 03:22 | 1.55518 | 124.92489 | 336 ft | 20 kts | 181° |
| 2026-05-06 03:22 | 1.55376 | 124.92484 | 336 ft | 20 kts | 182° |
| 2026-05-06 03:22 | 1.55231 | 124.92479 | 334 ft | 21 kts | 182° |
| 2026-05-06 03:22 | 1.55084 | 124.92474 | 336 ft | 22 kts | 181° |
| 2026-05-06 03:23 | 1.54934 | 124.92469 | 334 ft | 21 kts | 182° |
| 2026-05-06 03:23 | 1.54788 | 124.92465 | 336 ft | 21 kts | 181° |
| 2026-05-06 03:23 | 1.54640 | 124.92460 | 337 ft | 21 kts | 182° |
| 2026-05-06 03:23 | 1.54500 | 124.92455 | 336 ft | 13 kts | 182° |
| 2026-05-06 03:24 | 1.54420 | 124.92447 | 334 ft | 9 kts | 199° |
| 2026-05-06 03:24 | 1.54362 | 124.92422 | 336 ft | 9 kts | 193° |
| 2026-05-06 03:24 | 1.54342 | 124.92420 | 336 ft | 4 kts | 182° |
| 2026-05-06 03:24 | 1.54291 | 124.92421 | 337 ft | 8 kts | 181° |
| 2026-05-06 03:25 | 1.54282 | 124.92408 | 334 ft | 2 kts | 262° |
| 2026-05-06 03:25 | 1.54284 | 124.92390 | 336 ft | 3 kts | 291° |
| 2026-05-06 03:25 | 1.54295 | 124.92373 | 336 ft | 3 kts | 303° |
| 2026-05-06 03:25 | 1.54307 | 124.92358 | 336 ft | 1 kts | 309° |
| 2026-05-06 03:26 | 1.54310 | 124.92354 | 336 ft | 1 kts | 309° |
| 2026-05-06 03:26 | 1.54315 | 124.92348 | 336 ft | 1 kts | 309° |
| 2026-05-06 03:26 | 1.54317 | 124.92345 | 333 ft | 0 kts | 309° |